Time;durP1;ratioP1;P1;durP2;ratioP2;P2;SDS_P1;SDS_P2;PMS_P1;PMS_P2;Temp;Humidity;BMP_temperature;BMP_pressure;BME280_temperature;BME280_humidity;BME280_pressure;Samples;Min_cycle;Max_cycle;Signal;HPM_P1;HPM_P2
2021/10/17 00:01:33;;;;;;;6.72;3.72;;;;;;;8.35;77.92;99002.00;5085084;28;20135;-94
2021/10/17 00:03:59;;;;;;;7.05;4.15;;;;;;;8.29;77.88;98991.53;5084661;28;20048;-94
2021/10/17 00:06:28;;;;;;;8.27;4.80;;;;;;;8.52;77.20;99007.09;5082511;28;20123;-93
2021/10/17 00:08:55;;;;;;;5.15;3.28;;;;;;;8.54;77.57;99022.06;5083373;28;20045;-94
2021/10/17 00:11:21;;;;;;;7.90;4.18;;;;;;;8.49;76.79;98994.78;5083420;28;20066;-94
2021/10/17 00:13:47;;;;;;;7.07;3.85;;;;;;;8.36;77.43;98995.81;5084521;28;20183;-96
2021/10/17 00:16:15;;;;;;;8.10;4.13;;;;;;;8.27;77.87;98999.47;5085044;28;20041;-95
2021/10/17 00:18:43;;;;;;;6.68;4.03;;;;;;;8.15;78.66;98999.66;5085415;28;20052;-95
2021/10/17 00:21:09;;;;;;;7.28;4.20;;;;;;;8.05;78.78;99004.22;5083701;28;20375;-95
2021/10/17 00:23:35;;;;;;;8.23;4.53;;;;;;;7.96;79.39;99005.19;5084934;28;20078;-94
2021/10/17 00:26:01;;;;;;;6.38;4.18;;;;;;;8.02;80.05;99025.41;5084767;28;20083;-94
2021/10/17 00:28:27;;;;;;;6.93;4.20;;;;;;;7.80;80.15;99003.63;5083853;28;20044;-94
2021/10/17 00:30:53;;;;;;;7.20;4.20;;;;;;;7.85;80.97;99027.38;5084609;28;20044;-94
2021/10/17 00:33:19;;;;;;;7.55;4.13;;;;;;;7.66;81.17;99005.59;5085212;28;20152;-93
2021/10/17 00:35:48;;;;;;;7.45;4.60;;;;;;;7.59;81.27;99002.13;5085226;28;20046;-95
2021/10/17 00:38:16;;;;;;;7.13;4.25;;;;;;;7.66;81.59;99011.75;5084448;28;20052;-94
2021/10/17 00:40:43;;;;;;;7.30;4.00;;;;;;;7.63;81.72;99008.25;5084057;28;20072;-94
2021/10/17 00:43:09;;;;;;;6.82;4.65;;;;;;;7.60;81.66;99017.09;5084068;28;20045;-94
2021/10/17 00:45:36;;;;;;;7.95;4.57;;;;;;;7.82;81.90;99060.09;5083683;28;20049;-94
2021/10/17 00:48:04;;;;;;;12.35;6.47;;;;;;;7.69;82.03;99050.53;5087258;28;20044;-95
2021/10/17 00:50:30;;;;;;;10.98;5.63;;;;;;;7.47;82.18;99015.47;5086807;28;20041;-94
2021/10/17 00:52:59;;;;;;;13.40;7.63;;;;;;;7.67;82.36;99047.88;5088937;28;20079;-93
2021/10/17 00:55:29;;;;;;;12.55;8.02;;;;;;;7.50;82.76;99026.03;5087697;28;20104;-94
2021/10/17 00:57:56;;;;;;;10.52;6.63;;;;;;;7.33;83.04;99002.38;5087680;28;20048;-93
2021/10/17 01:00:22;;;;;;;11.68;7.28;;;;;;;7.37;83.27;99028.81;5087448;28;20074;-94
2021/10/17 01:02:48;;;;;;;10.52;6.53;;;;;;;7.20;83.70;99009.59;5087973;28;20064;-93
2021/10/17 01:05:16;;;;;;;11.43;6.40;;;;;;;7.33;84.35;99042.06;5087796;28;20051;-94
2021/10/17 01:07:43;;;;;;;12.45;7.45;;;;;;;7.15;84.55;99022.81;5088254;28;20051;-94
2021/10/17 01:10:12;;;;;;;14.80;7.82;;;;;;;6.99;84.79;99008.88;5085989;28;20040;-94
2021/10/17 01:12:38;;;;;;;13.23;8.40;;;;;;;6.96;85.71;99013.31;5084965;28;20410;-94
2021/10/17 01:15:05;;;;;;;14.60;8.70;;;;;;;7.02;85.75;99015.03;5086913;28;20044;-93
2021/10/17 01:17:33;;;;;;;16.23;8.80;;;;;;;6.99;85.65;99010.66;5086354;28;20082;-94
2021/10/17 01:20:02;;;;;;;16.70;8.52;;;;;;;7.01;85.29;99011.53;5085526;28;20053;-95
2021/10/17 01:22:28;;;;;;;12.23;8.48;;;;;;;7.05;86.08;99018.53;5084770;28;20045;-95
2021/10/17 01:24:54;;;;;;;15.23;8.65;;;;;;;7.02;86.17;99015.91;5084966;28;20048;-93
2021/10/17 01:27:20;;;;;;;12.38;7.90;;;;;;;7.01;86.09;99003.59;5083938;28;20052;-93
2021/10/17 01:29:47;;;;;;;16.13;7.97;;;;;;;6.94;85.69;98992.19;5083732;28;20083;-94
2021/10/17 01:32:14;;;;;;;14.40;7.60;;;;;;;6.98;85.88;99006.25;5083512;28;20045;-94
2021/10/17 01:34:40;;;;;;;13.20;7.47;;;;;;;6.95;86.02;98988.63;5083801;28;20072;-94
2021/10/17 01:37:08;;;;;;;8.90;5.25;;;;;;;6.94;85.90;99000.13;5082961;28;20040;-93
2021/10/17 01:39:34;;;;;;;7.97;4.30;;;;;;;7.11;85.43;99001.72;5082607;28;20049;-95
2021/10/17 01:42:00;;;;;;;9.52;4.22;;;;;;;7.56;84.75;99032.13;5084102;28;20040;-94
2021/10/17 01:44:27;;;;;;;7.57;4.32;;;;;;;7.54;83.04;98988.06;5084113;28;20071;-93
2021/10/17 01:46:55;;;;;;;11.48;4.65;;;;;;;7.74;81.92;98988.72;5084153;28;20048;-95
2021/10/17 01:49:21;;;;;;;8.90;4.45;;;;;;;8.05;79.90;98982.16;5081636;28;20049;-94
2021/10/17 01:51:48;;;;;;;13.48;4.45;;;;;;;8.06;79.57;98979.47;5082972;28;20113;-94
2021/10/17 01:54:15;;;;;;;8.38;4.22;;;;;;;8.12;79.24;98992.63;5083154;28;20045;-94
2021/10/17 01:56:41;;;;;;;7.88;4.30;;;;;;;8.03;79.33;98977.72;5082691;28;20040;-94
2021/10/17 01:59:07;;;;;;;6.00;3.92;;;;;;;8.17;80.10;99019.03;5083572;28;20054;-94
2021/10/17 02:01:34;;;;;;;7.03;4.43;;;;;;;8.01;80.44;99003.34;5081310;28;20140;-94
2021/10/17 02:04:01;;;;;;;6.35;4.00;;;;;;;8.10;80.31;99001.50;5082360;28;20052;-94
2021/10/17 02:06:27;;;;;;;6.45;3.83;;;;;;;7.93;81.33;98983.16;5082501;28;20494;-94
2021/10/17 02:08:54;;;;;;;10.65;4.20;;;;;;;8.10;80.58;98991.75;5081826;28;20051;-93
2021/10/17 02:11:21;;;;;;;8.65;3.90;;;;;;;8.13;80.28;98970.56;5083942;28;20023;-93
2021/10/17 02:13:47;;;;;;;8.20;3.78;;;;;;;8.22;79.96;98981.00;5083313;28;20044;-93
2021/10/17 02:16:13;;;;;;;6.15;3.65;;;;;;;8.22;79.94;98978.34;5083684;28;20449;-93
2021/10/17 02:18:39;;;;;;;8.77;3.83;;;;;;;8.62;78.52;98996.34;5080887;28;20049;-94
2021/10/17 02:21:06;;;;;;;6.07;3.70;;;;;;;8.58;78.08;98965.47;5082620;28;20040;-93
2021/10/17 02:23:32;;;;;;;6.40;3.85;;;;;;;8.73;78.31;99005.91;5083008;28;20107;-93
2021/10/17 02:25:58;;;;;;;8.45;3.83;;;;;;;8.49;78.31;98978.00;5084182;28;20130;-95
2021/10/17 02:28:26;;;;;;;5.93;3.63;;;;;;;8.45;78.85;98984.25;5084315;28;20048;-94
2021/10/17 02:30:51;;;;;;;5.97;3.40;;;;;;;8.28;79.36;98972.06;5084218;28;20072;-95
2021/10/17 02:33:18;;;;;;;5.82;3.67;;;;;;;8.19;79.66;98969.56;5084331;28;20071;-96
2021/10/17 02:35:44;;;;;;;6.88;4.07;;;;;;;8.17;80.00;98982.81;5084679;28;20044;-95
2021/10/17 02:38:10;;;;;;;8.07;4.50;;;;;;;7.97;80.68;98969.88;5084464;28;20124;-95
2021/10/17 02:40:37;;;;;;;9.82;5.32;;;;;;;7.91;79.85;98988.47;5086834;28;20037;-95
2021/10/17 02:43:03;;;;;;;8.60;4.88;;;;;;;7.62;79.97;98983.56;5084643;28;20048;-96
2021/10/17 02:45:30;;;;;;;8.73;5.47;;;;;;;7.45;80.62;98981.09;5084049;28;20049;-96
2021/10/17 02:47:56;;;;;;;10.15;5.53;;;;;;;7.29;81.25;98979.53;5082754;28;20076;-95
2021/10/17 02:50:22;;;;;;;8.13;5.22;;;;;;;7.14;81.66;98992.00;5082731;28;20048;-94
2021/10/17 02:52:49;;;;;;;9.52;5.70;;;;;;;7.03;82.53;98980.66;5083490;28;20056;-95
2021/10/17 02:55:14;;;;;;;8.68;5.40;;;;;;;6.99;82.77;98997.44;5082770;28;20049;-95
2021/10/17 02:57:40;;;;;;;11.55;5.00;;;;;;;6.85;83.45;98980.81;5083925;28;20056;-94
2021/10/17 03:00:08;;;;;;;8.90;5.43;;;;;;;6.73;83.50;98989.72;5083984;28;20077;-94
2021/10/17 03:02:38;;;;;;;10.55;5.85;;;;;;;6.61;84.15;98985.41;5082705;28;20036;-94
2021/10/17 03:05:05;;;;;;;9.85;5.63;;;;;;;6.65;85.88;99016.19;5083021;28;20047;-94
2021/10/17 03:07:31;;;;;;;9.50;5.55;;;;;;;6.51;85.79;98996.94;5082112;28;20566;-94
2021/10/17 03:09:57;;;;;;;12.75;6.60;;;;;;;6.33;87.93;98985.63;5083437;28;20078;-95
2021/10/17 03:12:23;;;;;;;12.68;7.30;;;;;;;6.45;87.97;98994.34;5082702;28;20044;-93
2021/10/17 03:14:51;;;;;;;13.20;7.90;;;;;;;6.63;88.25;99007.41;5083326;28;20144;-94
2021/10/17 03:17:18;;;;;;;16.00;7.72;;;;;;;6.57;87.57;98995.13;5083361;28;20049;-94
2021/10/17 03:19:45;;;;;;;14.50;7.70;;;;;;;6.44;87.61;98974.97;5082610;28;20055;-94
2021/10/17 03:22:11;;;;;;;14.50;8.00;;;;;;;6.55;87.54;98993.41;5083527;28;20070;-93
2021/10/17 03:24:37;;;;;;;10.30;6.50;;;;;;;6.38;87.51;98978.53;5081447;28;20040;-94
2021/10/17 03:27:03;;;;;;;9.88;5.97;;;;;;;6.46;87.96;98994.34;5082765;28;20048;-94
2021/10/17 03:29:29;;;;;;;9.65;5.93;;;;;;;6.36;87.98;98980.31;5083143;28;20049;-94
2021/10/17 03:31:56;;;;;;;9.30;6.10;;;;;;;6.46;88.43;98998.72;5082448;28;20048;-94
2021/10/17 03:34:22;;;;;;;8.15;4.35;;;;;;;6.35;88.62;98991.78;5081600;28;20123;-94
2021/10/17 03:36:49;;;;;;;7.30;4.25;;;;;;;6.37;88.58;98995.25;5082198;28;20083;-94
2021/10/17 03:39:15;;;;;;;8.13;4.65;;;;;;;6.36;87.62;99001.44;5082517;28;20044;-94
2021/10/17 03:41:41;;;;;;;7.75;4.75;;;;;;;6.23;87.86;98983.91;5082389;28;20076;-96
2021/10/17 03:44:07;;;;;;;8.73;5.00;;;;;;;6.18;88.30;98983.06;5081860;28;20040;-94
2021/10/17 03:46:33;;;;;;;7.78;4.93;;;;;;;6.13;88.58;98982.22;5082159;28;20047;-94
2021/10/17 03:48:59;;;;;;;7.10;4.03;;;;;;;6.10;89.08;98987.50;5081173;28;20045;-94
2021/10/17 03:51:26;;;;;;;7.30;3.97;;;;;;;6.07;89.09;98987.50;5081393;28;20044;-93
2021/10/17 03:53:53;;;;;;;7.60;4.53;;;;;;;6.04;89.33;98990.19;5080412;28;20080;-93
2021/10/17 03:56:19;;;;;;;8.18;4.50;;;;;;;5.99;89.37;98989.34;5080865;28;20494;-94
2021/10/17 03:58:45;;;;;;;10.95;5.80;;;;;;;6.09;89.05;99006.88;5081079;28;20051;-94
2021/10/17 04:01:11;;;;;;;10.10;6.15;;;;;;;6.09;88.92;98998.94;5081055;28;20494;-93
2021/10/17 04:03:38;;;;;;;7.90;5.00;;;;;;;6.02;88.97;98989.31;5082610;28;20044;-93
2021/10/17 04:06:07;;;;;;;8.27;4.80;;;;;;;5.98;89.49;98991.06;5082721;28;20052;-93
2021/10/17 04:08:33;;;;;;;8.00;4.78;;;;;;;5.97;88.95;98991.97;5081085;28;20041;-94
2021/10/17 04:11:00;;;;;;;9.93;5.25;;;;;;;6.15;89.35;99022.69;5081055;28;20044;-95
2021/10/17 04:13:26;;;;;;;8.68;5.50;;;;;;;5.85;90.46;98992.88;5081130;28;20131;-94
2021/10/17 04:15:54;;;;;;;10.95;5.82;;;;;;;5.87;91.71;98982.31;5079858;28;20075;-94
2021/10/17 04:18:20;;;;;;;10.40;5.78;;;;;;;6.07;90.79;99017.47;5081047;28;20051;-94
2021/10/17 04:20:46;;;;;;;10.73;5.55;;;;;;;5.89;91.46;98986.69;5080229;28;20048;-94
2021/10/17 04:23:12;;;;;;;13.05;6.50;;;;;;;5.93;90.92;98991.06;5083676;28;20045;-94
2021/10/17 04:25:38;;;;;;;12.20;6.40;;;;;;;5.94;90.99;98986.66;5085486;28;20076;-94
2021/10/17 04:28:05;;;;;;;9.68;5.78;;;;;;;5.92;91.12;98984.06;5085118;28;20045;-95
2021/10/17 04:30:31;;;;;;;10.15;5.65;;;;;;;5.97;90.77;99005.19;5084917;28;20043;-93
2021/10/17 04:32:57;;;;;;;9.18;5.43;;;;;;;5.94;90.93;98986.66;5085271;28;20098;-94
2021/10/17 04:35:23;;;;;;;11.30;6.03;;;;;;;6.14;90.63;99036.78;5084575;28;20111;-94
2021/10/17 04:37:50;;;;;;;9.13;5.68;;;;;;;5.90;90.79;98996.38;5084788;28;20053;-94
2021/10/17 04:40:17;;;;;;;10.20;5.50;;;;;;;5.93;90.50;99011.31;5084967;28;20045;-94
2021/10/17 04:42:43;;;;;;;9.55;5.13;;;;;;;5.87;90.53;99008.69;5084938;28;20045;-95
2021/10/17 04:45:11;;;;;;;9.23;5.18;;;;;;;5.81;90.85;99001.69;5084524;28;20080;-93
2021/10/17 04:47:37;;;;;;;10.88;6.22;;;;;;;5.96;90.88;99025.44;5084349;28;20140;-95
2021/10/17 04:50:04;;;;;;;11.25;6.50;;;;;;;5.80;90.66;98997.28;5084727;28;20064;-95
2021/10/17 04:52:30;;;;;;;10.15;5.90;;;;;;;5.97;90.30;99035.09;5084055;28;20045;-94
2021/10/17 04:54:56;;;;;;;9.48;5.72;;;;;;;5.80;91.15;99005.22;5084607;28;20045;-94
2021/10/17 04:57:22;;;;;;;10.88;5.93;;;;;;;5.81;90.70;99020.16;5086041;28;20063;-93
2021/10/17 04:59:48;;;;;;;11.27;6.88;;;;;;;5.70;91.06;99017.59;5086232;28;20056;-94
2021/10/17 05:02:15;;;;;;;13.75;7.25;;;;;;;5.66;91.39;99010.56;5085916;28;20047;-95
2021/10/17 05:04:41;;;;;;;12.75;6.93;;;;;;;5.64;91.69;99014.97;5084390;28;20087;-95
2021/10/17 05:07:08;;;;;;;12.55;6.60;;;;;;;5.78;91.54;99041.28;5086172;28;20079;-93
2021/10/17 05:09:34;;;;;;;15.73;7.57;;;;;;;5.61;92.01;99014.06;5086269;28;20055;-93
2021/10/17 05:12:00;;;;;;;11.70;7.15;;;;;;;5.65;91.97;99026.38;5085695;28;20048;-94
2021/10/17 05:14:26;;;;;;;12.60;6.80;;;;;;;5.61;91.77;99016.72;5085449;28;20048;-94
2021/10/17 05:16:52;;;;;;;14.32;7.00;;;;;;;5.58;90.39;99020.25;5086191;28;20131;-93
2021/10/17 05:19:19;;;;;;;12.35;6.20;;;;;;;5.58;90.43;99014.97;5086419;28;20064;-94
2021/10/17 05:21:45;;;;;;;10.85;6.00;;;;;;;5.73;90.94;99057.13;5085818;28;20067;-93
2021/10/17 05:24:11;;;;;;;10.48;5.70;;;;;;;5.67;90.52;99048.38;5085998;28;20044;-94
2021/10/17 05:26:37;;;;;;;13.30;6.57;;;;;;;5.48;90.83;99021.16;5084936;28;20079;-94
2021/10/17 05:29:03;;;;;;;11.55;6.78;;;;;;;5.73;92.16;99065.06;5083408;28;20044;-96
2021/10/17 05:31:30;;;;;;;12.57;6.93;;;;;;;5.61;92.79;99043.97;5086649;28;20105;-94
2021/10/17 05:33:56;;;;;;;12.45;6.82;;;;;;;5.55;92.52;99033.44;5085663;28;20044;-94
2021/10/17 05:36:24;;;;;;;10.73;6.10;;;;;;;5.56;92.18;99033.44;5085232;28;20398;-92
2021/10/17 05:38:50;;;;;;;13.00;7.25;;;;;;;5.55;92.19;99034.31;5083784;28;20048;-93
2021/10/17 05:41:16;;;;;;;12.40;6.60;;;;;;;5.62;92.53;99039.59;5085214;28;20093;-94
2021/10/17 05:43:42;;;;;;;12.80;6.32;;;;;;;5.66;92.09;99043.94;5085106;28;20052;-93
2021/10/17 05:46:08;;;;;;;12.93;7.32;;;;;;;5.63;92.45;99047.47;5085318;28;20041;-95
2021/10/17 05:48:34;;;;;;;13.00;7.50;;;;;;;5.66;92.38;99041.31;5086788;28;20081;-93
2021/10/17 05:51:00;;;;;;;11.50;6.32;;;;;;;5.66;92.55;99054.50;5086044;28;20044;-94
2021/10/17 05:53:29;;;;;;;12.65;7.03;;;;;;;5.66;92.39;99052.78;5087095;28;20051;-94
2021/10/17 05:55:55;;;;;;;11.40;7.10;;;;;;;5.66;91.93;99054.50;5086029;28;20532;-95
2021/10/17 05:58:24;;;;;;;12.27;6.57;;;;;;;5.66;91.91;99047.50;5085644;28;20051;-95
2021/10/17 06:00:50;;;;;;;11.50;6.40;;;;;;;5.64;91.65;99053.63;5084844;28;20087;-93
2021/10/17 06:03:18;;;;;;;10.93;7.10;;;;;;;5.63;90.82;99060.66;5085874;28;20047;-95
2021/10/17 06:05:44;;;;;;;12.65;6.88;;;;;;;5.79;90.48;99087.91;5086033;28;20055;-94
2021/10/17 06:08:10;;;;;;;11.13;6.70;;;;;;;5.62;90.42;99068.63;5086436;28;20059;-94
2021/10/17 06:10:40;;;;;;;14.18;7.30;;;;;;;5.65;90.91;99073.88;5086932;28;20044;-95
2021/10/17 06:13:06;;;;;;;11.07;6.43;;;;;;;5.64;90.72;99078.28;5088165;28;20067;-95
2021/10/17 06:15:32;;;;;;;12.57;6.80;;;;;;;5.93;91.01;99107.22;5087659;28;20045;-94
2021/10/17 06:17:59;;;;;;;11.70;6.35;;;;;;;5.93;91.17;99070.25;5086051;28;20040;-95
2021/10/17 06:20:25;;;;;;;11.55;6.50;;;;;;;5.97;90.21;99074.69;5086895;28;20494;-96
2021/10/17 06:22:52;;;;;;;11.10;6.10;;;;;;;6.00;90.17;99073.78;5088321;28;20493;-95
2021/10/17 06:25:19;;;;;;;10.02;6.75;;;;;;;6.07;90.06;99082.56;5087496;28;20558;-96
2021/10/17 06:27:47;;;;;;;11.73;6.35;;;;;;;6.24;89.90;99096.56;5086932;28;20379;-96
2021/10/17 06:30:13;;;;;;;12.13;6.93;;;;;;;6.30;89.75;99074.53;5085282;28;20040;-95
2021/10/17 06:32:40;;;;;;;10.00;6.40;;;;;;;6.43;89.13;99088.56;5084677;28;20083;-96
2021/10/17 06:35:07;;;;;;;13.13;8.13;;;;;;;6.49;88.47;99077.97;5084899;28;20098;-95
2021/10/17 06:37:33;;;;;;;14.05;8.30;;;;;;;6.60;87.51;99084.06;5084392;28;20478;-95
2021/10/17 06:39:59;;;;;;;21.00;10.68;;;;;;;6.87;86.86;99124.41;5085163;28;20075;-94
2021/10/17 06:42:25;;;;;;;17.40;9.30;;;;;;;6.78;86.45;99097.16;5086374;28;20072;-96
2021/10/17 06:44:57;;;;;;;16.90;9.10;;;;;;;7.10;85.91;99130.44;5084846;28;20052;-96
2021/10/17 06:47:25;;;;;;;18.67;9.00;;;;;;;7.10;85.55;99117.22;5088790;28;20055;-96
2021/10/17 06:49:57;;;;;;;12.55;7.70;;;;;;;7.07;85.23;99104.03;5088947;28;20100;-96
2021/10/17 06:52:23;;;;;;;13.73;6.70;;;;;;;7.16;84.56;99101.28;5090476;28;20070;-96
2021/10/17 06:54:49;;;;;;;10.50;6.75;;;;;;;7.28;83.45;99096.78;5089325;28;20064;-96
2021/10/17 06:57:16;;;;;;;10.07;6.88;;;;;;;7.40;83.11;99096.69;5086902;28;20040;-95
2021/10/17 06:59:43;;;;;;;11.95;7.00;;;;;;;7.59;82.62;99129.16;5086286;28;20104;-96
2021/10/17 07:02:10;;;;;;;13.27;7.60;;;;;;;7.57;82.34;99107.13;5089412;28;20041;-96
2021/10/17 07:04:38;;;;;;;12.38;7.68;;;;;;;7.74;81.77;99123.72;5087097;28;20079;-96
2021/10/17 07:07:08;;;;;;;11.88;6.95;;;;;;;7.97;81.07;99133.19;5087394;28;20044;-95
2021/10/17 07:09:35;;;;;;;11.52;7.20;;;;;;;8.21;80.57;99138.19;5085714;28;20045;-96
2021/10/17 07:12:02;;;;;;;10.93;7.38;;;;;;;8.16;79.86;99108.25;5084877;28;20127;-95
2021/10/17 07:14:28;;;;;;;13.27;7.80;;;;;;;8.24;79.24;99105.50;5084548;28;20074;-95
2021/10/17 07:17:00;;;;;;;12.50;7.63;;;;;;;8.36;79.42;99105.34;5085052;28;20048;-96
2021/10/17 07:20:05;;;;;;;11.13;6.85;;;;;;;8.73;79.00;99139.34;5089563;28;20092;-96
2021/10/17 07:22:31;;;;;;;11.23;6.95;;;;;;;8.70;77.63;99118.19;5089312;28;20087;-95
2021/10/17 07:25:00;;;;;;;10.85;6.82;;;;;;;8.86;76.98;99115.31;5089539;28;20052;-96
2021/10/17 07:27:26;;;;;;;;;;;;;;;9.15;76.82;99160.88;5088302;28;20097;-96
2021/10/17 07:29:52;;;;;;;10.40;7.03;;;;;;;9.11;76.44;99132.63;5082238;28;20003;-95
2021/10/17 07:32:18;;;;;;;12.93;7.50;;;;;;;9.23;76.07;99137.72;5082497;28;20112;-95
2021/10/17 07:34:47;;;;;;;11.88;7.63;;;;;;;9.38;76.04;99149.88;5083447;28;20099;-96
2021/10/17 07:37:16;;;;;;;11.43;7.00;;;;;;;9.37;75.31;99128.69;5085300;28;20080;-95
2021/10/17 07:39:42;;;;;;;11.77;7.18;;;;;;;9.38;74.81;99125.97;5086902;28;20112;-96
2021/10/17 07:42:08;;;;;;;14.82;8.40;;;;;;;9.48;74.99;99136.44;5086030;28;20044;-96
2021/10/17 07:44:34;;;;;;;12.30;7.22;;;;;;;9.60;74.33;99133.59;5087859;28;20052;-96
2021/10/17 07:47:00;;;;;;;11.85;7.32;;;;;;;9.80;73.91;99141.19;5081434;28;20044;-96
2021/10/17 07:49:27;;;;;;;13.95;9.05;;;;;;;10.08;73.43;99165.47;5079255;28;20470;-96
2021/10/17 07:51:54;;;;;;;13.13;8.20;;;;;;;10.27;72.47;99166.00;5080345;28;20037;-95
2021/10/17 07:54:20;;;;;;;14.25;8.38;;;;;;;10.30;71.62;99144.72;5079819;28;20048;-95
2021/10/17 07:56:46;;;;;;;15.23;8.40;;;;;;;10.34;71.31;99138.41;5080019;28;20040;-95
2021/10/17 07:59:12;;;;;;;13.60;8.77;;;;;;;10.53;70.41;99140.72;5080235;28;20049;-96
2021/10/17 08:01:38;;;;;;;16.58;9.43;;;;;;;10.57;70.44;99134.44;5077303;28;20053;-95
2021/10/17 08:04:04;;;;;;;15.38;9.48;;;;;;;10.88;69.88;99167.41;5100755;28;20055;-93
2021/10/17 08:06:30;;;;;;;17.13;9.15;;;;;;;10.84;69.73;99132.94;5097623;28;20048;-95
2021/10/17 08:08:58;;;;;;;12.77;8.65;;;;;;;11.01;69.40;99137.88;5095779;28;20113;-95
2021/10/17 08:11:24;;;;;;;13.82;8.95;;;;;;;11.19;69.19;99148.13;5078606;28;20393;-95
2021/10/17 08:13:50;;;;;;;15.23;8.93;;;;;;;11.47;68.78;99166.06;5077532;28;20044;-94
2021/10/17 08:16:16;;;;;;;13.02;8.05;;;;;;;11.52;67.38;99156.19;5079095;28;20048;-95
2021/10/17 08:18:42;;;;;;;15.68;8.45;;;;;;;11.70;67.00;99163.72;5077487;28;20132;-95
2021/10/17 08:21:08;;;;;;;14.38;8.73;;;;;;;11.74;67.45;99151.22;5079803;28;20064;-96
2021/10/17 08:23:34;;;;;;;13.18;8.60;;;;;;;11.81;66.87;99144.78;5077268;28;20517;-95
2021/10/17 08:26:01;;;;;;;12.20;8.23;;;;;;;11.91;65.82;99132.16;5078410;28;20045;-95
2021/10/17 08:28:28;;;;;;;13.15;8.23;;;;;;;12.17;65.63;99150.09;5079178;28;20488;-96
2021/10/17 08:30:54;;;;;;;11.73;7.60;;;;;;;12.26;65.43;99148.97;5079122;28;20040;-95
2021/10/17 08:33:21;;;;;;;12.50;7.88;;;;;;;12.32;65.03;99143.47;5077373;28;20098;-95
2021/10/17 08:35:47;;;;;;;13.05;8.77;;;;;;;12.36;64.97;99139.81;5080513;28;20124;-96
2021/10/17 08:38:15;;;;;;;14.23;8.00;;;;;;;12.49;64.43;99135.88;5080424;28;20068;-95
2021/10/17 08:43:55;;;;;;;15.55;9.10;;;;;;;12.85;63.62;99137.47;5112288;27;20374;-94
2021/10/17 08:46:21;;;;;;;17.25;9.63;;;;;;;12.92;63.50;99134.59;5095968;28;20044;-95
2021/10/17 08:48:54;;;;;;;14.25;9.50;;;;;;;13.13;63.30;99148.16;5097980;28;20052;-95
2021/10/17 08:51:23;;;;;;;15.75;9.40;;;;;;;13.14;62.94;99128.53;5095474;28;20051;-94
2021/10/17 08:53:56;;;;;;;14.05;9.38;;;;;;;13.28;62.84;99141.47;5095520;28;20040;-96
2021/10/17 08:56:23;;;;;;;16.00;9.77;;;;;;;13.36;62.82;99139.47;5096168;28;20375;-94
2021/10/17 08:58:50;;;;;;;14.60;8.77;;;;;;;13.61;62.70;99168.03;5096976;28;20044;-96
2021/10/17 09:01:18;;;;;;;13.00;9.27;;;;;;;13.74;62.29;99162.22;5098032;28;20059;-96
2021/10/17 09:03:52;;;;;;;15.05;9.38;;;;;;;13.74;62.40;99143.53;5097045;28;20135;-94
2021/10/17 09:06:20;;;;;;;15.23;9.45;;;;;;;13.85;61.64;99136.94;5097389;28;20075;-96
2021/10/17 09:08:47;;;;;;;16.00;10.20;;;;;;;13.96;61.66;99132.94;5100828;28;20490;-96
2021/10/17 09:11:38;;;;;;;15.13;9.80;;;;;;;14.15;61.05;99129.66;5101086;28;20056;-96
2021/10/17 09:14:06;;;;;;;15.10;9.57;;;;;;;14.23;60.87;99132.91;5079397;28;20051;-96
2021/10/17 09:16:38;;;;;;;19.35;11.10;;;;;;;14.46;60.53;99149.94;5079956;28;20045;-96
2021/10/17 09:19:06;;;;;;;18.65;11.73;;;;;;;14.49;60.49;99139.13;5080154;28;20048;-95
2021/10/17 09:21:32;;;;;;;20.77;12.32;;;;;;;14.57;60.14;99131.69;5080356;28;20048;-96
2021/10/17 09:24:02;;;;;;;23.52;13.43;;;;;;;14.64;59.34;99126.97;5077650;28;20491;-96
2021/10/17 09:26:40;;;;;;;19.10;11.27;;;;;;;14.70;59.24;99121.41;5079938;28;20079;-95
2021/10/17 09:33:36;;;;;;;16.50;10.15;;;;;;;14.99;59.45;99139.91;5068872;28;20108;-95
2021/10/17 09:44:12;;;;;;;14.48;9.13;;;;;;;15.50;57.39;99140.53;4840136;29;20046;-95
2021/10/17 09:47:00;;;;;;;14.98;8.57;;;;;;;15.52;57.69;99116.34;4839521;29;20061;-92
2021/10/17 09:49:47;;;;;;;13.18;8.45;;;;;;;15.79;56.46;99131.31;4839892;29;20053;-95
2021/10/17 09:52:30;;;;;;;9.02;5.80;;;;;;;15.85;55.06;99121.25;4918894;29;20056;-93
2021/10/17 09:55:06;;;;;;;9.35;6.20;;;;;;;16.03;56.20;99133.88;4905456;29;20060;-95
2021/10/17 09:57:32;;;;;;;8.60;4.60;;;;;;;15.96;55.83;99111.81;4902340;29;20040;-94
2021/10/17 10:00:01;;;;;;;8.88;4.43;;;;;;;16.01;55.63;99106.25;4905173;29;20044;-95
2021/10/17 10:02:27;;;;;;;11.27;6.90;;;;;;;15.88;56.23;99115.78;4902222;29;20045;-95
2021/10/17 10:04:55;;;;;;;10.98;6.30;;;;;;;15.54;57.14;99115.34;4904819;29;20060;-95
2021/10/17 10:07:23;;;;;;;11.43;6.63;;;;;;;15.87;58.64;99132.78;4905581;29;20051;-94
2021/10/17 10:09:50;;;;;;;9.07;6.37;;;;;;;16.17;56.66;99144.00;4904304;29;20049;-93
2021/10/17 10:12:18;;;;;;;7.78;4.75;;;;;;;16.01;56.20;99108.94;4920523;28;20042;-93
2021/10/17 10:14:45;;;;;;;7.95;5.15;;;;;;;15.84;55.40;99108.78;5002239;28;20046;-94
2021/10/17 10:17:15;;;;;;;8.85;5.07;;;;;;;15.95;56.43;99110.06;5070933;28;20075;-95
2021/10/17 10:19:42;;;;;;;8.05;5.20;;;;;;;16.06;56.18;99119.47;5067909;28;20049;-95
2021/10/17 10:22:08;;;;;;;9.68;5.70;;;;;;;16.25;55.80;99109.66;5063316;28;20044;-95
2021/10/17 10:24:34;;;;;;;8.02;5.22;;;;;;;16.26;56.29;99118.56;5060501;28;20056;-94
2021/10/17 10:27:02;;;;;;;7.50;5.05;;;;;;;16.18;55.17;99113.56;5081527;28;20044;-95
2021/10/17 10:29:30;;;;;;;9.45;5.68;;;;;;;16.48;57.05;99113.09;5085423;28;20037;-94
2021/10/17 10:31:58;;;;;;;9.95;5.68;;;;;;;16.66;54.91;99106.03;5081862;28;20037;-95
2021/10/17 10:34:52;;;;;;;9.65;5.85;;;;;;;16.99;55.03;99131.31;5063528;28;20045;-95
2021/10/17 10:37:19;;;;;;;8.10;5.80;;;;;;;16.88;53.42;99103.25;5061334;28;20087;-94
2021/10/17 10:40:12;;;;;;;9.25;5.75;;;;;;;16.98;52.95;99126.00;5059626;28;20071;-96
2021/10/17 10:42:41;;;;;;;13.27;6.15;;;;;;;16.85;54.55;99112.31;5061147;28;20049;-95
2021/10/17 10:45:22;;;;;;;9.70;5.88;;;;;;;16.84;54.95;99121.31;5058297;28;20044;-95
2021/10/17 10:48:09;;;;;;;9.98;5.30;;;;;;;16.83;55.98;99100.78;5061114;28;20052;-94
2021/10/17 10:50:38;;;;;;;9.60;5.60;;;;;;;16.75;55.84;99108.28;5062577;28;20045;-94
2021/10/17 10:53:03;;;;;;;;;;;;;;;16.94;54.72;99122.63;5059178;28;20044;-93
2021/10/17 10:55:45;;;;;;;17.27;8.90;;;;;;;16.89;53.54;99087.03;5061071;28;19925;-95
2021/10/17 10:58:23;;;;;;;9.70;5.35;;;;;;;16.66;53.25;99090.78;5040585;28;20501;-95
2021/10/17 11:00:50;;;;;;;7.93;4.78;;;;;;;16.61;53.97;99091.00;5039191;28;20045;-94
2021/10/17 11:03:17;;;;;;;9.13;5.68;;;;;;;16.78;54.76;99100.94;5062209;28;20074;-93
2021/10/17 11:06:15;;;;;;;8.40;6.10;;;;;;;16.89;53.81;99091.53;5059042;28;20095;-95
2021/10/17 11:08:42;;;;;;;8.75;4.70;;;;;;;16.83;54.65;99074.78;5061093;28;20048;-94
2021/10/17 11:11:09;;;;;;;8.98;5.70;;;;;;;16.92;53.60;99081.53;5064779;28;20565;-93
2021/10/17 11:13:38;;;;;;;8.90;5.93;;;;;;;17.07;52.69;99089.78;5077294;28;20037;-95
2021/10/17 11:16:06;;;;;;;7.82;5.00;;;;;;;17.14;52.51;99096.59;5058276;28;20045;-94
2021/10/17 11:18:36;;;;;;;6.50;4.60;;;;;;;17.21;52.65;99089.97;5059189;28;20045;-95
2021/10/17 11:21:03;;;;;;;8.75;4.65;;;;;;;17.10;51.53;99069.00;5062237;28;20053;-94
2021/10/17 11:26:08;;;;;;;7.40;4.63;;;;;;;17.20;53.44;99096.31;5263253;23;20066;-94
2021/10/17 11:28:37;;;;;;;7.35;4.63;;;;;;;17.09;52.59;99069.06;4986596;28;20069;-94
2021/10/17 11:31:11;;;;;;;6.95;5.00;;;;;;;17.16;51.84;99083.97;4985194;28;20043;-93
2021/10/17 11:33:40;;;;;;;7.65;5.10;;;;;;;17.15;52.68;99074.16;4985979;28;20050;-96
2021/10/17 11:36:08;;;;;;;7.40;5.30;;;;;;;17.14;53.02;99057.16;4987218;28;20061;-94
2021/10/17 11:38:41;;;;;;;8.88;5.32;;;;;;;17.20;52.79;99064.94;4988277;28;20050;-96
2021/10/17 11:41:13;;;;;;;9.50;5.28;;;;;;;17.25;52.62;99078.13;4988021;28;20544;-95
2021/10/17 11:43:42;;;;;;;10.38;6.47;;;;;;;17.22;51.76;99068.41;4989641;28;20049;-96
2021/10/17 11:46:13;;;;;;;8.13;5.20;;;;;;;17.34;51.93;99066.06;4988382;28;20046;-96
2021/10/17 11:48:40;;;;;;;7.10;4.88;;;;;;;17.48;51.82;99089.53;4987765;28;20272;-96
2021/10/17 11:51:11;;;;;;;10.27;5.13;;;;;;;17.37;52.38;99056.03;4988107;28;20077;-96
2021/10/17 11:53:38;;;;;;;7.85;4.90;;;;;;;17.43;50.99;99062.91;4988326;28;20047;-96
2021/10/17 11:56:21;;;;;;;8.30;5.30;;;;;;;17.43;53.04;99055.69;4987555;28;20043;-96